createdAt,value
2022-08-08T00:00:52.463Z,3.03
2022-08-08T00:02:30.879Z,2.75
2022-08-08T00:05:44.037Z,3.63
2022-08-08T00:08:43.462Z,2.72
2022-08-08T00:11:20.411Z,3.00
2022-08-08T00:14:17.394Z,2.80
2022-08-08T00:17:23.377Z,2.88
2022-08-08T00:20:05.359Z,2.40
2022-08-08T00:22:54.574Z,2.90
2022-08-08T00:25:28.665Z,3.05
2022-08-08T00:28:34.237Z,3.17
2022-08-08T00:32:21.106Z,3.20
2022-08-08T00:34:36.540Z,2.90
2022-08-08T00:37:47.975Z,3.58
2022-08-08T00:41:11.271Z,3.13
2022-08-08T00:43:21.932Z,2.90
2022-08-08T00:45:56.590Z,3.42
2022-08-08T00:49:00.796Z,3.20
2022-08-08T00:51:47.788Z,3.65
2022-08-08T00:54:17.814Z,3.45
2022-08-08T00:57:03.302Z,3.10
2022-08-08T00:59:58.264Z,3.90
2022-08-08T01:03:59.003Z,3.30
2022-08-08T01:06:27.756Z,3.20
2022-08-08T01:09:35.494Z,2.65
2022-08-08T01:12:41.974Z,3.03
2022-08-08T01:18:53.184Z,3.85
2022-08-08T01:22:12.218Z,4.47
2022-08-08T01:24:59.192Z,4.20
2022-08-08T01:27:50.811Z,4.10
2022-08-08T01:30:59.929Z,3.88
2022-08-08T01:34:00.948Z,4.45
2022-08-08T01:36:48.379Z,3.97
2022-08-08T01:39:43.605Z,4.35
2022-08-08T01:42:35.884Z,4.10
2022-08-08T01:45:29.441Z,3.72
2022-08-08T01:48:16.945Z,3.63
2022-08-08T01:51:32.213Z,3.90
2022-08-08T01:55:25.903Z,3.22
2022-08-08T01:58:11.531Z,3.60
2022-08-08T02:00:58.877Z,3.35
2022-08-08T02:03:57.289Z,3.28
2022-08-08T02:07:01.321Z,3.40
2022-08-08T02:10:03.998Z,3.47
2022-08-08T02:16:28.152Z,2.95
2022-08-08T02:19:56.936Z,3.28
2022-08-08T02:22:45.828Z,3.00
2022-08-08T02:25:28.197Z,3.60
2022-08-08T02:28:34.762Z,3.30
2022-08-08T02:31:58.390Z,3.10
2022-08-08T02:35:11.219Z,3.10
2022-08-08T02:38:00.575Z,3.35
2022-08-08T02:40:45.182Z,2.97
2022-08-08T02:44:42.280Z,2.67
2022-08-08T02:46:32.580Z,3.00
2022-08-08T02:49:47.432Z,2.67
2022-08-08T02:52:50.429Z,3.10
2022-08-08T02:55:37.296Z,3.53
2022-08-08T02:58:32.017Z,3.53
2022-08-08T03:01:15.064Z,3.40
2022-08-08T03:05:02.647Z,3.35
2022-08-08T03:07:24.708Z,3.30
2022-08-08T03:10:33.430Z,3.08
2022-08-08T03:15:58.219Z,3.30
2022-08-08T03:16:35.224Z,3.58
2022-08-08T03:19:27.913Z,3.17
2022-08-08T03:21:59.640Z,2.95
2022-08-08T03:24:28.715Z,2.63
2022-08-08T03:27:08.130Z,3.13
2022-08-08T03:29:54.593Z,2.60
2022-08-08T03:32:41.554Z,2.75
2022-08-08T03:35:10.229Z,2.95
2022-08-08T03:38:53.134Z,2.50
2022-08-08T03:40:29.842Z,2.70
2022-08-08T03:42:58.729Z,3.28
2022-08-08T03:46:06.213Z,2.58
2022-08-08T03:49:09.098Z,2.15
2022-08-08T03:51:19.330Z,2.28
2022-08-08T03:53:54.914Z,2.20
2022-08-08T03:56:32.200Z,2.78
2022-08-08T03:58:59.541Z,2.38
2022-08-08T04:02:23.027Z,2.60
2022-08-08T04:04:23.085Z,2.13
2022-08-08T04:06:58.190Z,2.00
2022-08-08T04:09:47.191Z,1.80
2022-08-08T04:12:15.912Z,1.90
2022-08-08T04:14:45.178Z,2.22
2022-08-08T04:17:22.256Z,2.08
2022-08-08T04:20:02.001Z,1.75
2022-08-08T04:22:32.122Z,2.38
2022-08-08T04:25:02.326Z,2.10
2022-08-08T04:28:03.381Z,2.03
2022-08-08T04:30:17.714Z,1.98
2022-08-08T04:32:50.189Z,1.90
2022-08-08T04:35:20.368Z,2.20
2022-08-08T04:37:50.925Z,1.90
2022-08-08T04:40:18.209Z,2.05
2022-08-08T04:42:46.847Z,2.55
2022-08-08T04:45:25.654Z,2.50
2022-08-08T04:47:54.000Z,2.40
2022-08-08T04:50:24.235Z,2.47
2022-08-08T04:52:58.650Z,2.30
2022-08-08T04:55:37.705Z,2.28
2022-08-08T04:58:17.530Z,1.83
2022-08-08T05:00:45.056Z,1.65
2022-08-08T05:03:18.910Z,2.00
2022-08-08T05:06:12.575Z,1.85
2022-08-08T05:08:42.113Z,2.40
2022-08-08T05:11:18.597Z,1.50
2022-08-08T05:13:57.935Z,1.80
2022-08-08T05:16:51.536Z,1.80
2022-08-08T05:20:11.097Z,1.65
2022-08-08T05:22:08.187Z,1.42
2022-08-08T05:24:37.198Z,1.92
2022-08-08T05:27:05.084Z,2.05
2022-08-08T05:29:31.911Z,1.40
2022-08-08T05:32:06.424Z,1.90
2022-08-08T05:34:43.607Z,1.83
2022-08-08T05:37:16.233Z,1.58
2022-08-08T05:39:57.138Z,2.05
2022-08-08T05:42:34.978Z,1.40
2022-08-08T05:45:10.447Z,1.75
2022-08-08T05:47:52.570Z,1.42
2022-08-08T05:50:28.869Z,1.70
2022-08-08T05:52:57.021Z,1.52
2022-08-08T05:56:09.581Z,1.80
2022-08-08T05:58:34.279Z,1.33
2022-08-08T06:01:04.916Z,2.10
2022-08-08T06:03:32.238Z,1.30
2022-08-08T06:06:06.637Z,1.77
2022-08-08T06:08:53.466Z,1.33
2022-08-08T06:11:28.279Z,1.40
2022-08-08T06:13:56.554Z,1.50
2022-08-08T06:16:27.335Z,1.38
2022-08-08T06:19:01.977Z,1.10
2022-08-08T06:21:48.486Z,1.23
2022-08-08T06:24:23.085Z,1.70
2022-08-08T06:27:04.171Z,1.73
2022-08-08T06:30:00.426Z,1.30
2022-08-08T06:32:32.063Z,1.20
2022-08-08T06:35:30.656Z,1.42
2022-08-08T06:38:04.304Z,1.30
2022-08-08T06:40:37.945Z,1.38
2022-08-08T06:43:18.299Z,1.13
2022-08-08T06:45:45.297Z,1.30
2022-08-08T06:48:16.745Z,1.30
2022-08-08T06:50:45.379Z,1.13
2022-08-08T06:53:17.188Z,0.90
2022-08-08T06:56:00.497Z,0.77
2022-08-08T06:58:30.809Z,0.73
2022-08-08T07:01:24.216Z,0.95
2022-08-08T07:04:40.301Z,0.73
2022-08-08T07:06:50.524Z,0.98
2022-08-08T07:09:27.200Z,1.17
2022-08-08T07:12:09.690Z,0.80
2022-08-08T07:14:53.720Z,0.95
2022-08-08T07:17:40.232Z,0.80
2022-08-08T07:20:18.941Z,0.73
2022-08-08T07:23:13.628Z,0.60
2022-08-08T07:25:54.729Z,0.95
2022-08-08T07:28:31.468Z,0.88
2022-08-08T07:30:59.377Z,0.85
2022-08-08T07:33:27.431Z,1.08
2022-08-08T07:36:08.308Z,0.70
2022-08-08T07:38:38.238Z,0.90
2022-08-08T07:41:16.719Z,0.98
2022-08-08T07:43:55.668Z,0.60
2022-08-08T07:46:30.326Z,1.25
2022-08-08T07:48:57.916Z,0.70
2022-08-08T07:51:44.631Z,1.90
2022-08-08T07:54:34.493Z,1.20
2022-08-08T07:57:36.268Z,0.90
2022-08-08T08:00:14.071Z,1.50
2022-08-08T08:02:44.787Z,1.20
2022-08-08T08:05:32.901Z,1.33
2022-08-08T08:08:10.455Z,1.17
2022-08-08T08:10:38.479Z,0.73
2022-08-08T08:13:42.863Z,6.22
2022-08-08T08:16:23.444Z,2.13
2022-08-08T08:18:59.841Z,1.20
2022-08-08T08:21:44.409Z,0.98
2022-08-08T08:24:18.722Z,0.98
2022-08-08T08:26:52.912Z,0.85
2022-08-08T08:29:22.367Z,0.65
2022-08-08T08:31:53.959Z,0.88
2022-08-08T08:34:24.788Z,0.80
2022-08-08T08:36:59.873Z,0.90
2022-08-08T08:39:59.323Z,0.80
2022-08-08T08:42:19.443Z,0.90
2022-08-08T08:45:01.224Z,0.95
2022-08-08T08:47:44.844Z,0.70
2022-08-08T08:50:31.710Z,1.27
2022-08-08T08:53:04.801Z,0.88
2022-08-08T08:55:39.393Z,0.70
2022-08-08T08:58:09.569Z,0.70
2022-08-08T09:01:04.930Z,0.90
2022-08-08T09:03:45.544Z,1.20
2022-08-08T09:06:28.445Z,1.17
2022-08-08T09:09:38.965Z,1.00
2022-08-08T09:12:09.635Z,0.93
2022-08-08T09:14:42.556Z,0.60
2022-08-08T09:17:17.854Z,1.27
2022-08-08T09:21:59.244Z,1.20
2022-08-08T09:22:35.110Z,0.95
2022-08-08T09:25:04.230Z,0.70
2022-08-08T09:27:55.616Z,0.60
2022-08-08T09:30:22.114Z,0.93
2022-08-08T09:33:54.776Z,0.60
2022-08-08T09:35:49.751Z,1.25
2022-08-08T09:38:52.614Z,0.57
2022-08-08T09:42:13.882Z,0.70
2022-08-08T09:44:49.470Z,1.42
2022-08-08T09:48:02.444Z,1.30
2022-08-08T09:50:19.813Z,0.88
2022-08-08T09:52:57.680Z,0.70
2022-08-08T09:55:51.723Z,0.57
2022-08-08T09:58:27.985Z,1.45
2022-08-08T10:01:15.153Z,0.70
2022-08-08T10:04:02.372Z,0.60
2022-08-08T10:06:32.372Z,1.35
2022-08-08T10:09:00.343Z,0.60
2022-08-08T10:12:27.003Z,0.70
2022-08-08T10:14:28.124Z,0.90
2022-08-08T10:17:57.458Z,0.57
2022-08-08T10:19:59.968Z,0.90
2022-08-08T10:22:29.072Z,0.60
2022-08-08T10:25:03.081Z,0.50
2022-08-08T10:27:42.668Z,0.80
2022-08-08T10:30:16.250Z,0.80
2022-08-08T10:33:00.356Z,0.60
2022-08-08T10:36:21.048Z,0.70
2022-08-08T10:38:20.895Z,0.90
2022-08-08T10:40:53.243Z,0.85
2022-08-08T10:43:20.862Z,0.50
2022-08-08T10:45:56.355Z,1.17
2022-08-08T10:48:56.835Z,0.50
2022-08-08T10:51:31.396Z,0.38
2022-08-08T10:54:07.641Z,0.50
2022-08-08T10:56:35.708Z,0.60
2022-08-08T10:59:12.191Z,0.50
2022-08-08T11:01:49.520Z,0.43
2022-08-08T11:04:29.547Z,0.40
2022-08-08T11:07:06.779Z,0.30
2022-08-08T11:09:34.274Z,1.00
2022-08-08T11:12:13.077Z,0.50
2022-08-08T11:14:59.791Z,0.75
2022-08-08T11:18:00.887Z,0.65
2022-08-08T11:20:37.479Z,0.80
2022-08-08T11:23:05.513Z,1.23
2022-08-08T11:25:46.207Z,0.60
2022-08-08T11:28:29.307Z,0.80
2022-08-08T11:31:00.607Z,0.60
2022-08-08T11:33:53.066Z,0.90
2022-08-08T11:36:15.171Z,0.60
2022-08-08T11:38:55.007Z,0.60
2022-08-08T11:41:24.424Z,0.60
2022-08-08T11:43:54.536Z,0.55
2022-08-08T11:46:26.658Z,0.63
2022-08-08T11:48:55.595Z,0.50
2022-08-08T11:51:30.610Z,0.40
2022-08-08T11:54:27.066Z,0.80
2022-08-08T11:56:56.481Z,0.68
2022-08-08T11:59:58.484Z,0.70
2022-08-08T12:02:32.311Z,0.50
2022-08-08T12:05:06.743Z,0.68
2022-08-08T12:07:53.798Z,0.68
2022-08-08T12:10:25.188Z,0.52
2022-08-08T12:13:05.859Z,0.65
2022-08-08T12:15:47.203Z,0.57
2022-08-08T12:18:25.280Z,0.50
2022-08-08T12:20:54.971Z,0.40
2022-08-08T12:23:42.846Z,0.50
2022-08-08T12:26:28.271Z,0.68
2022-08-08T12:29:17.281Z,0.43
2022-08-08T12:31:53.926Z,0.30
2022-08-08T12:34:39.283Z,0.50
2022-08-08T12:37:41.190Z,0.43
2022-08-08T12:40:22.633Z,0.90
2022-08-08T12:42:52.064Z,0.47
2022-08-08T12:45:58.174Z,0.60
2022-08-08T12:48:37.333Z,0.50
2022-08-08T12:51:10.698Z,0.60
2022-08-08T12:53:59.178Z,0.40
2022-08-08T12:56:40.112Z,0.40
2022-08-08T12:59:27.364Z,0.50
2022-08-08T13:02:31.117Z,0.50
2022-08-08T13:05:00.191Z,0.60
2022-08-08T13:08:03.021Z,1.25
2022-08-08T13:10:32.770Z,1.20
2022-08-08T13:15:33.701Z,0.50
2022-08-08T13:18:11.163Z,0.50
2022-08-08T13:20:48.796Z,0.50
2022-08-08T13:23:36.821Z,0.52
2022-08-08T13:26:14.765Z,0.70
2022-08-08T13:28:45.491Z,0.40
2022-08-08T13:31:16.590Z,0.60
2022-08-08T13:33:46.360Z,0.60
2022-08-08T13:36:14.830Z,0.50
2022-08-08T13:38:44.831Z,0.60
2022-08-08T13:41:16.989Z,0.50
2022-08-08T13:43:49.831Z,0.60
2022-08-08T13:50:33.885Z,0.40
2022-08-08T13:51:58.840Z,0.57
2022-08-08T13:54:32.660Z,0.43
2022-08-08T13:57:03.141Z,0.45
2022-08-08T13:59:50.462Z,0.60
2022-08-08T14:02:21.579Z,0.70
2022-08-08T14:05:05.179Z,0.70
2022-08-08T14:07:52.304Z,0.52
2022-08-08T14:10:32.959Z,0.52
2022-08-08T14:13:30.835Z,0.65
2022-08-08T14:16:15.873Z,0.55
2022-08-08T14:18:52.226Z,0.38
2022-08-08T14:21:23.667Z,0.40
2022-08-08T14:24:04.366Z,0.65
2022-08-08T14:26:46.289Z,0.52
2022-08-08T14:29:28.840Z,0.40
2022-08-08T14:32:09.478Z,0.52
2022-08-08T14:34:42.192Z,0.47
2022-08-08T14:37:09.471Z,0.52
2022-08-08T14:39:49.404Z,0.30
2022-08-08T14:42:26.646Z,0.82
2022-08-08T14:45:02.451Z,0.47
2022-08-08T14:47:36.066Z,0.60
2022-08-08T14:50:21.433Z,0.65
2022-08-08T14:55:35.407Z,0.52
2022-08-08T14:58:11.669Z,0.80
2022-08-08T15:00:39.694Z,0.70
2022-08-08T15:03:14.538Z,0.40
2022-08-08T16:05:35.321Z,0.98
2022-08-08T16:08:13.125Z,0.93
2022-08-08T16:13:02.826Z,0.50
2022-08-08T16:13:34.021Z,0.55
2022-08-08T16:16:17.378Z,0.40
2022-08-08T16:18:53.323Z,0.80
2022-08-08T16:21:27.130Z,0.70
2022-08-08T16:23:56.375Z,0.60
2022-08-08T16:26:34.745Z,0.60
2022-08-08T16:29:08.987Z,1.10
2022-08-08T16:31:40.956Z,0.80
2022-08-08T16:34:09.278Z,0.70
2022-08-08T16:36:37.559Z,0.70
2022-08-08T16:39:09.673Z,0.95
2022-08-08T16:41:50.402Z,0.77
2022-08-08T16:44:27.657Z,0.50
2022-08-08T16:47:18.563Z,0.75
2022-08-08T16:49:49.641Z,0.52
2022-08-08T16:55:05.726Z,0.65
2022-08-08T16:55:34.300Z,0.70
2022-08-08T16:58:14.158Z,0.77
2022-08-08T17:00:49.145Z,0.90
2022-08-08T17:03:25.016Z,0.88
2022-08-08T17:06:06.005Z,0.93
2022-08-08T17:08:52.812Z,0.73
2022-08-08T17:11:19.866Z,0.77
2022-08-08T17:13:50.042Z,0.60
2022-08-08T17:16:28.566Z,0.90
2022-08-08T17:18:55.861Z,0.60
2022-08-08T17:21:22.989Z,0.85
2022-08-08T17:24:02.038Z,1.25
2022-08-08T17:26:30.306Z,0.98
2022-08-08T17:28:58.809Z,0.70
2022-08-08T17:31:44.387Z,0.90
2022-08-08T17:34:53.766Z,0.60
2022-08-08T17:37:06.642Z,0.60
2022-08-08T17:40:03.284Z,0.50
2022-08-08T17:42:25.186Z,0.90
2022-08-08T17:44:52.687Z,0.80
2022-08-08T17:47:23.965Z,0.70
2022-08-08T17:49:52.850Z,0.70
2022-08-08T17:52:23.026Z,0.52
2022-08-08T17:54:51.918Z,0.90
2022-08-08T17:57:24.037Z,1.00
2022-08-08T17:59:51.772Z,1.02
2022-08-08T18:02:28.457Z,0.50
2022-08-08T18:04:58.349Z,4.45
2022-08-08T18:08:02.126Z,2.30
2022-08-08T18:10:15.441Z,1.40
2022-08-08T18:12:46.114Z,1.60
2022-08-08T18:15:14.489Z,2.38
2022-08-08T18:18:09.115Z,3.17
2022-08-08T18:20:43.428Z,2.25
2022-08-08T18:23:15.513Z,1.30
2022-08-08T18:25:45.545Z,3.67
2022-08-08T18:28:13.630Z,1.02
2022-08-08T18:30:42.706Z,1.15
2022-08-08T18:33:36.602Z,0.70
2022-08-08T18:36:03.066Z,0.60
2022-08-08T18:38:30.739Z,0.60
2022-08-08T18:40:59.350Z,1.50
2022-08-08T18:43:37.996Z,0.90
2022-08-08T18:46:55.942Z,0.43
2022-08-08T18:48:58.370Z,0.60
2022-08-08T18:51:53.649Z,0.90
2022-08-08T18:54:24.706Z,1.20
2022-08-08T18:56:55.311Z,1.05
2022-08-08T18:59:23.143Z,1.60
2022-08-08T19:02:27.350Z,1.00
2022-08-08T19:04:38.003Z,0.80
2022-08-08T19:07:05.168Z,0.60
2022-08-08T19:09:49.053Z,0.60
2022-08-08T19:12:26.303Z,0.82
2022-08-08T19:14:53.755Z,0.80
2022-08-08T19:17:28.900Z,0.70
2022-08-08T19:20:03.014Z,1.08
2022-08-08T19:22:30.375Z,0.68
2022-08-08T19:26:22.535Z,0.70
2022-08-08T19:27:57.325Z,0.63
2022-08-08T19:30:27.909Z,1.63
2022-08-08T19:32:58.174Z,1.13
2022-08-08T19:35:45.639Z,1.35
2022-08-08T19:38:16.576Z,0.80
2022-08-08T19:40:54.386Z,1.00
2022-08-08T19:43:28.108Z,1.00
2022-08-08T19:45:59.006Z,1.00
2022-08-08T19:48:31.301Z,1.00
2022-08-08T19:51:01.460Z,1.58
2022-08-08T19:53:53.340Z,0.80
2022-08-08T19:56:25.928Z,0.80
2022-08-08T19:59:03.721Z,0.73
2022-08-08T20:02:02.245Z,0.95
2022-08-08T20:04:23.623Z,1.83
2022-08-08T20:06:51.000Z,0.80
2022-08-08T20:09:22.712Z,0.73
2022-08-08T20:11:50.524Z,1.45
2022-08-08T20:14:35.874Z,0.90
2022-08-08T20:17:05.935Z,1.77
2022-08-08T20:19:38.743Z,1.00
2022-08-08T20:22:13.217Z,1.35
2022-08-08T20:24:48.313Z,1.10
2022-08-08T20:27:19.945Z,1.20
2022-08-08T20:30:02.636Z,1.00
2022-08-08T20:32:31.844Z,1.20
2022-08-08T20:35:01.692Z,0.93
2022-08-08T20:37:46.812Z,1.00
2022-08-08T20:40:17.398Z,0.90
2022-08-08T20:42:55.247Z,0.90
2022-08-08T20:45:57.537Z,1.52
2022-08-08T20:48:09.725Z,1.40
2022-08-08T20:50:36.971Z,1.20
2022-08-08T20:53:06.836Z,0.93
2022-08-08T20:55:43.117Z,1.38
2022-08-08T20:58:23.015Z,1.45
2022-08-08T21:00:50.336Z,1.20
2022-08-08T21:03:17.386Z,0.90
2022-08-08T21:05:58.952Z,1.40
2022-08-08T21:08:37.036Z,1.20
2022-08-08T21:11:13.963Z,3.05
2022-08-08T21:13:43.577Z,1.30
2022-08-08T21:16:18.193Z,1.40
2022-08-08T21:18:47.947Z,1.15
2022-08-08T21:21:20.749Z,1.25
2022-08-08T21:24:19.276Z,1.25
2022-08-08T21:26:53.996Z,1.70
2022-08-08T21:29:21.569Z,1.80
2022-08-08T21:31:53.329Z,1.50
2022-08-08T21:34:30.069Z,1.77
2022-08-08T21:36:58.444Z,1.40
2022-08-08T21:39:41.569Z,1.60
2022-08-08T21:42:12.305Z,1.83
2022-08-08T21:44:39.127Z,1.73
2022-08-08T21:48:00.394Z,1.52
2022-08-08T21:50:13.215Z,1.55
2022-08-08T21:54:22.737Z,2.42
2022-08-08T21:56:19.150Z,1.60
2022-08-08T21:58:14.693Z,1.80
2022-08-08T22:00:44.016Z,1.80
2022-08-08T22:03:17.556Z,1.65
2022-08-08T22:05:45.252Z,1.85
2022-08-08T22:08:15.279Z,1.65
2022-08-08T22:10:42.120Z,2.38
2022-08-08T22:13:17.005Z,2.38
2022-08-08T22:15:59.089Z,2.55
2022-08-08T22:18:33.234Z,1.67
2022-08-08T22:21:14.096Z,3.17
2022-08-08T22:23:50.493Z,2.28
2022-08-08T22:26:29.797Z,2.08
2022-08-08T22:29:13.855Z,2.50
2022-08-08T22:31:58.636Z,2.20
2022-08-08T22:34:39.537Z,2.33
2022-08-08T22:37:27.847Z,3.05
2022-08-08T22:40:00.928Z,2.72
2022-08-08T22:42:31.790Z,2.95
2022-08-08T22:45:01.750Z,2.67
2022-08-08T22:47:36.566Z,2.22
2022-08-08T22:50:26.368Z,3.40
2022-08-08T22:54:27.912Z,3.00
2022-08-08T22:55:58.660Z,2.53
2022-08-08T22:58:34.169Z,2.70
2022-08-08T23:01:30.207Z,2.50
2022-08-08T23:03:56.191Z,2.90
2022-08-08T23:06:24.549Z,2.95
2022-08-08T23:08:58.210Z,2.80
2022-08-08T23:14:18.622Z,2.50
2022-08-08T23:16:57.844Z,3.08
2022-08-08T23:19:30.978Z,2.70
2022-08-08T23:22:04.199Z,2.67
2022-08-08T23:24:36.208Z,3.08
2022-08-08T23:27:05.541Z,3.00
2022-08-08T23:29:32.499Z,2.58
2022-08-08T23:31:59.477Z,2.90
2022-08-08T23:34:26.315Z,2.60
2022-08-08T23:36:58.002Z,3.28
2022-08-08T23:39:32.036Z,2.60
2022-08-08T23:42:08.918Z,2.45
2022-08-08T23:44:39.576Z,2.88
2022-08-08T23:49:04.475Z,2.70
2022-08-08T23:50:03.152Z,3.38
2022-08-08T23:52:33.331Z,3.53
2022-08-08T23:55:13.953Z,3.08
2022-08-08T23:57:52.108Z,2.88
